sensor_id;sensor_type;location;lat;lon;timestamp;P1;durP1;ratioP1;P2;durP2;ratioP2
58982;SDS011;44771;49.982;8.560;2023-04-19T00:03:47;18.58;;;16.75;;
58982;SDS011;44771;49.982;8.560;2023-04-19T00:08:50;19.30;;;17.33;;
58982;SDS011;44771;49.982;8.560;2023-04-19T00:13:52;20.02;;;18.12;;
58982;SDS011;44771;49.982;8.560;2023-04-19T00:18:53;20.60;;;17.95;;
58982;SDS011;44771;49.982;8.560;2023-04-19T00:23:56;20.25;;;18.40;;
58982;SDS011;44771;49.982;8.560;2023-04-19T00:28:58;20.95;;;18.02;;
58982;SDS011;44771;49.982;8.560;2023-04-19T00:34:00;18.00;;;15.93;;
58982;SDS011;44771;49.982;8.560;2023-04-19T00:39:03;18.30;;;16.40;;
58982;SDS011;44771;49.982;8.560;2023-04-19T00:44:04;18.20;;;16.58;;
58982;SDS011;44771;49.982;8.560;2023-04-19T00:49:06;18.20;;;16.40;;
58982;SDS011;44771;49.982;8.560;2023-04-19T00:54:10;18.37;;;16.67;;
58982;SDS011;44771;49.982;8.560;2023-04-19T00:59:14;17.50;;;15.77;;
58982;SDS011;44771;49.982;8.560;2023-04-19T01:04:18;17.10;;;15.70;;
58982;SDS011;44771;49.982;8.560;2023-04-19T01:09:22;17.48;;;15.90;;
58982;SDS011;44771;49.982;8.560;2023-04-19T01:14:23;17.10;;;15.68;;
58982;SDS011;44771;49.982;8.560;2023-04-19T01:19:25;16.08;;;14.55;;
58982;SDS011;44771;49.982;8.560;2023-04-19T01:24:28;16.05;;;14.75;;
58982;SDS011;44771;49.982;8.560;2023-04-19T01:29:30;16.87;;;15.30;;
58982;SDS011;44771;49.982;8.560;2023-04-19T01:34:31;17.30;;;15.63;;
58982;SDS011;44771;49.982;8.560;2023-04-19T01:39:35;17.65;;;15.95;;
58982;SDS011;44771;49.982;8.560;2023-04-19T01:44:36;17.80;;;15.98;;
58982;SDS011;44771;49.982;8.560;2023-04-19T01:49:38;19.67;;;17.83;;
58982;SDS011;44771;49.982;8.560;2023-04-19T01:54:41;18.58;;;16.87;;
58982;SDS011;44771;49.982;8.560;2023-04-19T01:59:43;17.98;;;16.12;;
58982;SDS011;44771;49.982;8.560;2023-04-19T02:04:45;16.85;;;15.32;;
58982;SDS011;44771;49.982;8.560;2023-04-19T02:09:48;19.85;;;17.85;;
58982;SDS011;44771;49.982;8.560;2023-04-19T02:14:49;18.77;;;16.90;;
58982;SDS011;44771;49.982;8.560;2023-04-19T02:19:51;21.10;;;19.00;;
58982;SDS011;44771;49.982;8.560;2023-04-19T02:24:54;19.25;;;17.33;;
58982;SDS011;44771;49.982;8.560;2023-04-19T02:29:56;20.62;;;18.52;;
58982;SDS011;44771;49.982;8.560;2023-04-19T02:34:57;23.40;;;18.15;;
58982;SDS011;44771;49.982;8.560;2023-04-19T02:40:01;20.83;;;18.62;;
58982;SDS011;44771;49.982;8.560;2023-04-19T02:45:02;20.95;;;18.62;;
58982;SDS011;44771;49.982;8.560;2023-04-19T02:50:05;20.02;;;17.87;;
58982;SDS011;44771;49.982;8.560;2023-04-19T02:55:09;21.83;;;19.50;;
58982;SDS011;44771;49.982;8.560;2023-04-19T03:00:11;23.62;;;19.98;;
58982;SDS011;44771;49.982;8.560;2023-04-19T03:05:13;21.45;;;18.90;;
58982;SDS011;44771;49.982;8.560;2023-04-19T03:10:16;21.90;;;19.58;;
58982;SDS011;44771;49.982;8.560;2023-04-19T03:15:18;25.40;;;20.60;;
58982;SDS011;44771;49.982;8.560;2023-04-19T03:20:20;22.33;;;18.58;;
58982;SDS011;44771;49.982;8.560;2023-04-19T03:25:23;27.75;;;20.23;;
58982;SDS011;44771;49.982;8.560;2023-04-19T03:30:24;24.45;;;20.10;;
58982;SDS011;44771;49.982;8.560;2023-04-19T03:35:26;26.30;;;20.05;;
58982;SDS011;44771;49.982;8.560;2023-04-19T03:40:29;26.75;;;19.98;;
58982;SDS011;44771;49.982;8.560;2023-04-19T03:45:33;29.55;;;21.15;;
58982;SDS011;44771;49.982;8.560;2023-04-19T03:50:34;29.12;;;22.20;;
58982;SDS011;44771;49.982;8.560;2023-04-19T03:55:37;27.75;;;21.17;;
58982;SDS011;44771;49.982;8.560;2023-04-19T04:00:39;31.27;;;22.35;;
58982;SDS011;44771;49.982;8.560;2023-04-19T04:05:41;25.12;;;21.00;;
58982;SDS011;44771;49.982;8.560;2023-04-19T04:10:44;35.50;;;23.40;;
58982;SDS011;44771;49.982;8.560;2023-04-19T04:15:46;31.10;;;22.27;;
58982;SDS011;44771;49.982;8.560;2023-04-19T04:20:47;32.22;;;24.05;;
58982;SDS011;44771;49.982;8.560;2023-04-19T04:25:56;30.62;;;23.25;;
58982;SDS011;44771;49.982;8.560;2023-04-19T04:30:58;35.92;;;23.23;;
58982;SDS011;44771;49.982;8.560;2023-04-19T04:36:00;31.10;;;23.55;;
58982;SDS011;44771;49.982;8.560;2023-04-19T04:41:03;29.55;;;22.48;;
58982;SDS011;44771;49.982;8.560;2023-04-19T04:46:04;32.42;;;22.30;;
58982;SDS011;44771;49.982;8.560;2023-04-19T04:51:06;32.70;;;22.98;;
58982;SDS011;44771;49.982;8.560;2023-04-19T04:56:09;29.42;;;22.87;;
58982;SDS011;44771;49.982;8.560;2023-04-19T05:01:11;35.03;;;24.83;;
58982;SDS011;44771;49.982;8.560;2023-04-19T05:06:13;32.92;;;24.92;;
58982;SDS011;44771;49.982;8.560;2023-04-19T05:11:16;32.80;;;23.00;;
58982;SDS011;44771;49.982;8.560;2023-04-19T05:16:18;33.05;;;22.13;;
58982;SDS011;44771;49.982;8.560;2023-04-19T05:21:20;29.30;;;22.60;;
58982;SDS011;44771;49.982;8.560;2023-04-19T05:26:23;31.05;;;22.58;;
58982;SDS011;44771;49.982;8.560;2023-04-19T05:31:25;29.98;;;22.20;;
58982;SDS011;44771;49.982;8.560;2023-04-19T05:36:27;32.10;;;22.27;;
58982;SDS011;44771;49.982;8.560;2023-04-19T05:41:30;32.10;;;22.35;;
58982;SDS011;44771;49.982;8.560;2023-04-19T05:46:31;32.13;;;25.10;;
58982;SDS011;44771;49.982;8.560;2023-04-19T05:51:33;32.65;;;22.77;;
58982;SDS011;44771;49.982;8.560;2023-04-19T05:56:36;33.30;;;22.87;;
58982;SDS011;44771;49.982;8.560;2023-04-19T06:01:38;30.27;;;22.62;;
58982;SDS011;44771;49.982;8.560;2023-04-19T06:06:40;37.10;;;23.87;;
58982;SDS011;44771;49.982;8.560;2023-04-19T06:11:43;36.97;;;25.52;;
58982;SDS011;44771;49.982;8.560;2023-04-19T06:16:51;29.73;;;23.67;;
58982;SDS011;44771;49.982;8.560;2023-04-19T06:21:53;35.97;;;23.75;;
58982;SDS011;44771;49.982;8.560;2023-04-19T06:26:56;27.02;;;21.17;;
58982;SDS011;44771;49.982;8.560;2023-04-19T06:31:58;25.90;;;20.58;;
58982;SDS011;44771;49.982;8.560;2023-04-19T06:37:00;27.80;;;22.77;;
58982;SDS011;44771;49.982;8.560;2023-04-19T06:42:03;28.12;;;21.37;;
58982;SDS011;44771;49.982;8.560;2023-04-19T06:47:05;30.70;;;19.70;;
58982;SDS011;44771;49.982;8.560;2023-04-19T06:52:07;27.65;;;20.12;;
58982;SDS011;44771;49.982;8.560;2023-04-19T06:57:10;25.08;;;20.08;;
58982;SDS011;44771;49.982;8.560;2023-04-19T07:02:11;24.30;;;20.05;;
58982;SDS011;44771;49.982;8.560;2023-04-19T07:07:13;21.35;;;18.02;;
58982;SDS011;44771;49.982;8.560;2023-04-19T07:12:16;20.90;;;18.62;;
58982;SDS011;44771;49.982;8.560;2023-04-19T07:17:18;24.48;;;17.27;;
58982;SDS011;44771;49.982;8.560;2023-04-19T07:22:20;22.02;;;17.15;;
58982;SDS011;44771;49.982;8.560;2023-04-19T07:27:23;25.23;;;17.90;;
58982;SDS011;44771;49.982;8.560;2023-04-19T07:32:24;19.60;;;17.60;;
58982;SDS011;44771;49.982;8.560;2023-04-19T07:37:26;21.52;;;17.35;;
58982;SDS011;44771;49.982;8.560;2023-04-19T07:42:29;19.52;;;16.52;;
58982;SDS011;44771;49.982;8.560;2023-04-19T07:47:31;21.15;;;18.33;;
58982;SDS011;44771;49.982;8.560;2023-04-19T07:52:33;17.08;;;15.32;;
58982;SDS011;44771;49.982;8.560;2023-04-19T07:57:36;18.15;;;16.35;;
58982;SDS011;44771;49.982;8.560;2023-04-19T08:02:38;16.67;;;15.05;;
58982;SDS011;44771;49.982;8.560;2023-04-19T08:07:40;18.25;;;16.55;;
58982;SDS011;44771;49.982;8.560;2023-04-19T08:12:43;16.73;;;15.23;;
58982;SDS011;44771;49.982;8.560;2023-04-19T08:18:05;16.48;;;14.98;;
58982;SDS011;44771;49.982;8.560;2023-04-19T08:23:06;16.83;;;15.15;;
58982;SDS011;44771;49.982;8.560;2023-04-19T08:28:24;17.17;;;15.55;;
58982;SDS011;44771;49.982;8.560;2023-04-19T08:33:27;15.50;;;14.20;;
58982;SDS011;44771;49.982;8.560;2023-04-19T08:38:28;16.17;;;14.77;;
58982;SDS011;44771;49.982;8.560;2023-04-19T08:43:33;16.92;;;15.27;;
58982;SDS011;44771;49.982;8.560;2023-04-19T08:48:37;16.12;;;14.60;;
58982;SDS011;44771;49.982;8.560;2023-04-19T08:53:40;15.40;;;13.85;;
58982;SDS011;44771;49.982;8.560;2023-04-19T08:58:44;15.75;;;14.35;;
58982;SDS011;44771;49.982;8.560;2023-04-19T09:04:06;14.73;;;13.32;;
58982;SDS011;44771;49.982;8.560;2023-04-19T09:09:12;15.18;;;13.70;;
58982;SDS011;44771;49.982;8.560;2023-04-19T09:14:39;19.67;;;15.38;;
58982;SDS011;44771;49.982;8.560;2023-04-19T09:20:01;16.05;;;14.38;;
58982;SDS011;44771;49.982;8.560;2023-04-19T09:25:03;17.02;;;15.23;;
58982;SDS011;44771;49.982;8.560;2023-04-19T09:30:10;17.85;;;13.40;;
58982;SDS011;44771;49.982;8.560;2023-04-19T09:35:38;15.65;;;14.25;;
58982;SDS011;44771;49.982;8.560;2023-04-19T09:40:40;17.58;;;16.08;;
58982;SDS011;44771;49.982;8.560;2023-04-19T09:45:44;15.18;;;13.80;;
58982;SDS011;44771;49.982;8.560;2023-04-19T09:50:50;16.23;;;14.63;;
58982;SDS011;44771;49.982;8.560;2023-04-19T09:56:00;14.77;;;13.50;;
58982;SDS011;44771;49.982;8.560;2023-04-19T10:01:08;17.10;;;15.55;;
58982;SDS011;44771;49.982;8.560;2023-04-19T10:06:17;16.85;;;15.18;;
58982;SDS011;44771;49.982;8.560;2023-04-19T10:11:22;15.75;;;13.85;;
58982;SDS011;44771;49.982;8.560;2023-04-19T10:16:27;15.18;;;13.80;;
58982;SDS011;44771;49.982;8.560;2023-04-19T10:21:31;15.37;;;13.87;;
58982;SDS011;44771;49.982;8.560;2023-04-19T10:32:09;15.02;;;13.52;;
58982;SDS011;44771;49.982;8.560;2023-04-19T10:37:13;14.32;;;12.18;;
58982;SDS011;44771;49.982;8.560;2023-04-19T10:42:15;13.82;;;12.43;;
58982;SDS011;44771;49.982;8.560;2023-04-19T10:52:44;15.52;;;13.98;;
58982;SDS011;44771;49.982;8.560;2023-04-19T10:58:01;13.80;;;12.70;;
58982;SDS011;44771;49.982;8.560;2023-04-19T11:08:42;15.80;;;14.60;;
58982;SDS011;44771;49.982;8.560;2023-04-19T11:13:45;17.52;;;14.45;;
58982;SDS011;44771;49.982;8.560;2023-04-19T11:18:48;15.43;;;14.23;;
58982;SDS011;44771;49.982;8.560;2023-04-19T11:29:09;15.38;;;13.65;;
58982;SDS011;44771;49.982;8.560;2023-04-19T11:34:10;14.30;;;13.10;;
58982;SDS011;44771;49.982;8.560;2023-04-19T11:39:14;12.23;;;11.32;;
58982;SDS011;44771;49.982;8.560;2023-04-19T11:44:16;13.93;;;13.02;;
58982;SDS011;44771;49.982;8.560;2023-04-19T11:49:24;13.40;;;12.43;;
58982;SDS011;44771;49.982;8.560;2023-04-19T11:54:27;13.35;;;12.20;;
58982;SDS011;44771;49.982;8.560;2023-04-19T11:59:29;13.20;;;12.18;;
58982;SDS011;44771;49.982;8.560;2023-04-19T12:04:32;12.73;;;11.85;;
58982;SDS011;44771;49.982;8.560;2023-04-19T12:09:35;12.25;;;11.35;;
58982;SDS011;44771;49.982;8.560;2023-04-19T12:14:37;13.15;;;12.27;;
58982;SDS011;44771;49.982;8.560;2023-04-19T12:19:41;12.90;;;12.10;;
58982;SDS011;44771;49.982;8.560;2023-04-19T12:24:49;12.10;;;11.20;;
58982;SDS011;44771;49.982;8.560;2023-04-19T12:29:51;12.55;;;11.80;;
58982;SDS011;44771;49.982;8.560;2023-04-19T12:34:53;13.00;;;11.80;;
58982;SDS011;44771;49.982;8.560;2023-04-19T12:39:56;11.88;;;10.98;;
58982;SDS011;44771;49.982;8.560;2023-04-19T12:44:58;12.57;;;11.75;;
58982;SDS011;44771;49.982;8.560;2023-04-19T12:50:00;12.32;;;10.95;;
58982;SDS011;44771;49.982;8.560;2023-04-19T12:55:03;11.90;;;11.07;;
58982;SDS011;44771;49.982;8.560;2023-04-19T13:00:06;11.40;;;10.50;;
58982;SDS011;44771;49.982;8.560;2023-04-19T13:05:09;11.27;;;10.50;;
58982;SDS011;44771;49.982;8.560;2023-04-19T13:10:12;12.57;;;11.75;;
58982;SDS011;44771;49.982;8.560;2023-04-19T13:15:14;11.82;;;11.10;;
58982;SDS011;44771;49.982;8.560;2023-04-19T13:20:16;11.75;;;11.05;;
58982;SDS011;44771;49.982;8.560;2023-04-19T13:25:20;11.10;;;10.48;;
58982;SDS011;44771;49.982;8.560;2023-04-19T13:30:22;12.07;;;11.27;;
58982;SDS011;44771;49.982;8.560;2023-04-19T13:35:23;12.10;;;11.32;;
58982;SDS011;44771;49.982;8.560;2023-04-19T13:40:27;12.30;;;11.60;;
58982;SDS011;44771;49.982;8.560;2023-04-19T13:45:28;10.27;;;9.65;;
58982;SDS011;44771;49.982;8.560;2023-04-19T13:50:30;13.07;;;11.82;;
58982;SDS011;44771;49.982;8.560;2023-04-19T13:55:33;13.55;;;12.25;;
58982;SDS011;44771;49.982;8.560;2023-04-19T14:00:35;11.80;;;11.10;;
58982;SDS011;44771;49.982;8.560;2023-04-19T14:05:37;10.75;;;10.13;;
58982;SDS011;44771;49.982;8.560;2023-04-19T14:10:40;12.07;;;11.38;;
58982;SDS011;44771;49.982;8.560;2023-04-19T14:15:41;10.45;;;9.85;;
58982;SDS011;44771;49.982;8.560;2023-04-19T14:20:43;11.77;;;11.18;;
58982;SDS011;44771;49.982;8.560;2023-04-19T14:25:46;11.98;;;11.30;;
58982;SDS011;44771;49.982;8.560;2023-04-19T14:30:48;13.07;;;12.25;;
58982;SDS011;44771;49.982;8.560;2023-04-19T14:35:49;12.95;;;12.13;;
58982;SDS011;44771;49.982;8.560;2023-04-19T14:40:52;13.30;;;12.37;;
58982;SDS011;44771;49.982;8.560;2023-04-19T14:45:54;12.32;;;11.10;;
58982;SDS011;44771;49.982;8.560;2023-04-19T14:50:56;11.68;;;10.82;;
58982;SDS011;44771;49.982;8.560;2023-04-19T14:55:59;14.50;;;12.90;;
58982;SDS011;44771;49.982;8.560;2023-04-19T15:01:09;12.27;;;11.45;;
58982;SDS011;44771;49.982;8.560;2023-04-19T15:06:11;12.48;;;11.55;;
58982;SDS011;44771;49.982;8.560;2023-04-19T15:11:14;11.77;;;10.98;;
58982;SDS011;44771;49.982;8.560;2023-04-19T15:16:16;13.05;;;12.15;;
58982;SDS011;44771;49.982;8.560;2023-04-19T15:21:18;11.73;;;11.02;;
58982;SDS011;44771;49.982;8.560;2023-04-19T15:26:26;12.00;;;11.25;;
58982;SDS011;44771;49.982;8.560;2023-04-19T15:31:29;12.68;;;11.80;;
58982;SDS011;44771;49.982;8.560;2023-04-19T15:36:31;14.43;;;12.23;;
58982;SDS011;44771;49.982;8.560;2023-04-19T15:41:34;13.57;;;12.77;;
58982;SDS011;44771;49.982;8.560;2023-04-19T15:46:36;12.43;;;11.63;;
58982;SDS011;44771;49.982;8.560;2023-04-19T15:51:38;13.00;;;12.10;;
58982;SDS011;44771;49.982;8.560;2023-04-19T15:56:41;12.98;;;11.90;;
58982;SDS011;44771;49.982;8.560;2023-04-19T16:01:43;13.40;;;12.50;;
58982;SDS011;44771;49.982;8.560;2023-04-19T16:06:44;12.35;;;11.32;;
58982;SDS011;44771;49.982;8.560;2023-04-19T16:11:47;12.85;;;11.95;;
58982;SDS011;44771;49.982;8.560;2023-04-19T16:16:49;12.80;;;11.85;;
58982;SDS011;44771;49.982;8.560;2023-04-19T16:21:51;12.98;;;12.07;;
58982;SDS011;44771;49.982;8.560;2023-04-19T16:26:54;12.13;;;11.20;;
58982;SDS011;44771;49.982;8.560;2023-04-19T16:31:55;11.18;;;10.43;;
58982;SDS011;44771;49.982;8.560;2023-04-19T16:36:57;13.15;;;12.25;;
58982;SDS011;44771;49.982;8.560;2023-04-19T16:42:00;12.85;;;11.85;;
58982;SDS011;44771;49.982;8.560;2023-04-19T16:47:02;13.73;;;12.68;;
58982;SDS011;44771;49.982;8.560;2023-04-19T16:52:04;12.05;;;11.30;;
58982;SDS011;44771;49.982;8.560;2023-04-19T16:57:07;11.77;;;10.98;;
58982;SDS011;44771;49.982;8.560;2023-04-19T17:02:08;13.62;;;12.73;;
58982;SDS011;44771;49.982;8.560;2023-04-19T17:07:10;12.13;;;11.23;;
58982;SDS011;44771;49.982;8.560;2023-04-19T17:12:13;12.65;;;11.65;;
58982;SDS011;44771;49.982;8.560;2023-04-19T17:17:15;14.20;;;12.15;;
58982;SDS011;44771;49.982;8.560;2023-04-19T17:22:17;11.77;;;10.88;;
58982;SDS011;44771;49.982;8.560;2023-04-19T17:27:20;14.00;;;12.93;;
58982;SDS011;44771;49.982;8.560;2023-04-19T17:32:22;12.80;;;11.80;;
58982;SDS011;44771;49.982;8.560;2023-04-19T17:37:23;13.15;;;12.15;;
58982;SDS011;44771;49.982;8.560;2023-04-19T17:42:26;13.75;;;12.85;;
58982;SDS011;44771;49.982;8.560;2023-04-19T17:47:28;12.32;;;11.45;;
58982;SDS011;44771;49.982;8.560;2023-04-19T17:52:30;12.75;;;11.70;;
58982;SDS011;44771;49.982;8.560;2023-04-19T17:57:33;13.13;;;12.02;;
58982;SDS011;44771;49.982;8.560;2023-04-19T18:02:35;14.93;;;13.57;;
58982;SDS011;44771;49.982;8.560;2023-04-19T18:07:37;12.57;;;11.75;;
58982;SDS011;44771;49.982;8.560;2023-04-19T18:12:40;13.55;;;12.68;;
58982;SDS011;44771;49.982;8.560;2023-04-19T18:17:41;12.00;;;11.20;;
58982;SDS011;44771;49.982;8.560;2023-04-19T18:22:43;14.35;;;13.40;;
58982;SDS011;44771;49.982;8.560;2023-04-19T18:32:51;13.82;;;12.73;;
58982;SDS011;44771;49.982;8.560;2023-04-19T18:37:53;13.62;;;12.65;;
58982;SDS011;44771;49.982;8.560;2023-04-19T18:42:56;13.90;;;12.95;;
58982;SDS011;44771;49.982;8.560;2023-04-19T18:47:58;15.23;;;13.48;;
58982;SDS011;44771;49.982;8.560;2023-04-19T18:53:01;14.25;;;13.23;;
58982;SDS011;44771;49.982;8.560;2023-04-19T18:58:04;14.13;;;13.02;;
58982;SDS011;44771;49.982;8.560;2023-04-19T19:03:05;14.55;;;13.40;;
58982;SDS011;44771;49.982;8.560;2023-04-19T19:08:08;13.40;;;12.15;;
58982;SDS011;44771;49.982;8.560;2023-04-19T19:13:11;14.90;;;13.95;;
58982;SDS011;44771;49.982;8.560;2023-04-19T19:18:13;14.10;;;13.10;;
58982;SDS011;44771;49.982;8.560;2023-04-19T19:23:15;15.90;;;14.57;;
58982;SDS011;44771;49.982;8.560;2023-04-19T19:28:19;16.80;;;14.63;;
58982;SDS011;44771;49.982;8.560;2023-04-19T19:33:21;15.10;;;13.75;;
58982;SDS011;44771;49.982;8.560;2023-04-19T19:38:24;14.82;;;13.85;;
58982;SDS011;44771;49.982;8.560;2023-04-19T19:43:27;13.95;;;12.90;;
58982;SDS011;44771;49.982;8.560;2023-04-19T19:48:29;14.02;;;13.02;;
58982;SDS011;44771;49.982;8.560;2023-04-19T19:53:30;14.43;;;13.02;;
58982;SDS011;44771;49.982;8.560;2023-04-19T19:58:33;15.13;;;13.93;;
58982;SDS011;44771;49.982;8.560;2023-04-19T20:03:52;14.25;;;13.20;;
58982;SDS011;44771;49.982;8.560;2023-04-19T20:08:54;14.93;;;13.82;;
58982;SDS011;44771;49.982;8.560;2023-04-19T20:13:58;15.23;;;13.93;;
58982;SDS011;44771;49.982;8.560;2023-04-19T20:18:59;13.80;;;12.70;;
58982;SDS011;44771;49.982;8.560;2023-04-19T20:24:01;15.85;;;14.30;;
58982;SDS011;44771;49.982;8.560;2023-04-19T20:29:04;15.45;;;14.02;;
58982;SDS011;44771;49.982;8.560;2023-04-19T20:34:06;15.40;;;14.30;;
58982;SDS011;44771;49.982;8.560;2023-04-19T20:39:07;15.20;;;14.23;;
58982;SDS011;44771;49.982;8.560;2023-04-19T20:44:11;17.33;;;16.12;;
58982;SDS011;44771;49.982;8.560;2023-04-19T20:49:13;15.02;;;14.00;;
58982;SDS011;44771;49.982;8.560;2023-04-19T20:54:15;13.73;;;12.70;;
58982;SDS011;44771;49.982;8.560;2023-04-19T20:59:18;14.73;;;13.62;;
58982;SDS011;44771;49.982;8.560;2023-04-19T21:04:19;15.77;;;14.60;;
58982;SDS011;44771;49.982;8.560;2023-04-19T21:09:21;14.77;;;13.38;;
58982;SDS011;44771;49.982;8.560;2023-04-19T21:14:24;15.30;;;14.05;;
58982;SDS011;44771;49.982;8.560;2023-04-19T21:19:26;14.20;;;13.10;;
58982;SDS011;44771;49.982;8.560;2023-04-19T21:24:28;15.52;;;14.15;;
58982;SDS011;44771;49.982;8.560;2023-04-19T21:29:31;17.40;;;15.77;;
58982;SDS011;44771;49.982;8.560;2023-04-19T21:34:33;16.17;;;14.82;;
58982;SDS011;44771;49.982;8.560;2023-04-19T21:39:35;15.48;;;14.48;;
58982;SDS011;44771;49.982;8.560;2023-04-19T21:44:38;16.08;;;14.82;;
58982;SDS011;44771;49.982;8.560;2023-04-19T21:49:39;16.60;;;15.50;;
58982;SDS011;44771;49.982;8.560;2023-04-19T21:54:41;16.35;;;15.25;;
58982;SDS011;44771;49.982;8.560;2023-04-19T21:59:44;16.15;;;14.90;;
58982;SDS011;44771;49.982;8.560;2023-04-19T22:04:47;14.25;;;13.30;;
58982;SDS011;44771;49.982;8.560;2023-04-19T22:09:48;16.80;;;15.20;;
58982;SDS011;44771;49.982;8.560;2023-04-19T22:14:52;17.02;;;15.82;;
58982;SDS011;44771;49.982;8.560;2023-04-19T22:19:53;14.93;;;13.82;;
58982;SDS011;44771;49.982;8.560;2023-04-19T22:24:55;17.37;;;16.08;;
58982;SDS011;44771;49.982;8.560;2023-04-19T22:29:59;15.27;;;14.38;;
58982;SDS011;44771;49.982;8.560;2023-04-19T22:35:01;16.70;;;15.20;;
58982;SDS011;44771;49.982;8.560;2023-04-19T22:40:03;16.23;;;15.02;;
58982;SDS011;44771;49.982;8.560;2023-04-19T22:45:08;19.62;;;17.73;;
58982;SDS011;44771;49.982;8.560;2023-04-19T22:50:10;16.52;;;15.13;;
58982;SDS011;44771;49.982;8.560;2023-04-19T22:55:12;18.50;;;16.92;;
58982;SDS011;44771;49.982;8.560;2023-04-19T23:00:15;16.23;;;15.13;;
58982;SDS011;44771;49.982;8.560;2023-04-19T23:11:01;17.52;;;15.98;;
58982;SDS011;44771;49.982;8.560;2023-04-19T23:16:05;17.73;;;16.33;;
58982;SDS011;44771;49.982;8.560;2023-04-19T23:21:09;16.87;;;15.67;;
58982;SDS011;44771;49.982;8.560;2023-04-19T23:26:11;19.53;;;16.87;;
58982;SDS011;44771;49.982;8.560;2023-04-19T23:31:14;18.42;;;17.02;;
58982;SDS011;44771;49.982;8.560;2023-04-19T23:36:16;18.42;;;17.02;;
58982;SDS011;44771;49.982;8.560;2023-04-19T23:41:18;18.15;;;16.83;;
58982;SDS011;44771;49.982;8.560;2023-04-19T23:46:21;17.75;;;16.33;;
58982;SDS011;44771;49.982;8.560;2023-04-19T23:51:23;19.37;;;17.87;;
58982;SDS011;44771;49.982;8.560;2023-04-19T23:56:24;18.30;;;16.90;;
